KDYR  Dyersburg Regional Airport

Add Bookmark

Dyersburg, Tennessee, United States

Status Useage
Operational Public
Latitude Longitude
35° 59' 52" N 89° 24' 23" W
35.997972 -89.406583
Local (DST -5) UTC (GMT -6)
Nov 22, 2014 05:32 Nov 22, 2014 23:32
Sunrise-Sunset Local UTC
Begin Civil Twilight 06:12 12:12
Sunrise 06:40 12:40
Sunset 04:47 22:47
End Civil Twilight 05:15 23:15

Current Weather

METAR Observed VFR
KDYR 222315Z 15008KT 10SM SCT050 OVC110 16/01 A3006 Sat, Nov 22, 2014 @ 23:15 UTC
(17 Minutes ago)
Visual Flight Rules
Wind Visibility Clouds Conditions
150° at 8 knots (9 mph) 10 statute miles
  • Scattered at 5,000' AGL
  • Overcast at 11,000' AGL
  • No significant weather
Temperatures Readings Precipitation
Current Temp 16°C (61°F)
Dewpoint 1°C (34°F)
Humidity 36%
Altimeter 30.06"Hg
Sea Level Pressure 1018mb
Field Elevation 337'
None Recorded

Additional weather within a 50nm radius of KDYR

Map ICAO Location
KHKA 20.9nm W (261°)
KBYH 26.2nm W (266°)
KUCY 30.7nm N (042°)
KMKL 33.8nm S (135°)
KNQA 44.6nm S (211°)

24 Hour Weather History

Loading
-

24 Hour Weather Graphs

Loading
-

CheckWX.com is intended as a tool to help pilots better visualize weather data. It is not intended as a substitute for an official weather briefing obtained from a Flight Service Station. CheckWX.com does not meet the FAA requirements for an official pre-flight weather briefing. Therefore, it's important that pilots still call and obtain an official FSS pre-flight weather briefing.